sensor_id;sensor_type;location;lat;lon;timestamp;P1;durP1;ratioP1;P2;durP2;ratioP2
12888;SDS011;56848;49.896;11.424;2022-12-20T05:00:49;49.65;;;23.33;;
12888;SDS011;56848;49.896;11.424;2022-12-20T05:03:16;43.38;;;21.55;;
12888;SDS011;56848;49.896;11.424;2022-12-20T05:05:43;48.17;;;22.83;;
12888;SDS011;56848;49.896;11.424;2022-12-20T05:08:08;46.07;;;21.70;;
12888;SDS011;56848;49.896;11.424;2022-12-20T05:10:34;42.97;;;22.47;;
12888;SDS011;56848;49.896;11.424;2022-12-20T05:12:59;58.07;;;24.10;;
12888;SDS011;56848;49.896;11.424;2022-12-20T05:15:25;45.70;;;22.17;;
12888;SDS011;56848;49.896;11.424;2022-12-20T05:17:50;44.90;;;21.60;;
12888;SDS011;56848;49.896;11.424;2022-12-20T05:20:16;46.70;;;21.27;;
12888;SDS011;56848;49.896;11.424;2022-12-20T05:22:42;52.60;;;22.07;;
12888;SDS011;56848;49.896;11.424;2022-12-20T05:25:26;47.60;;;21.48;;
12888;SDS011;56848;49.896;11.424;2022-12-20T05:28:10;47.00;;;21.15;;
12888;SDS011;56848;49.896;11.424;2022-12-20T05:30:36;50.83;;;23.30;;
12888;SDS011;56848;49.896;11.424;2022-12-20T05:33:01;49.30;;;22.70;;
12888;SDS011;56848;49.896;11.424;2022-12-20T05:35:27;51.00;;;22.83;;
12888;SDS011;56848;49.896;11.424;2022-12-20T05:37:52;46.10;;;22.00;;
12888;SDS011;56848;49.896;11.424;2022-12-20T05:40:18;53.33;;;23.53;;
12888;SDS011;56848;49.896;11.424;2022-12-20T05:42:44;51.90;;;24.50;;
12888;SDS011;56848;49.896;11.424;2022-12-20T05:45:09;44.33;;;20.80;;
12888;SDS011;56848;49.896;11.424;2022-12-20T05:47:35;44.60;;;23.07;;
12888;SDS011;56848;49.896;11.424;2022-12-20T05:50:01;48.88;;;22.50;;
12888;SDS011;56848;49.896;11.424;2022-12-20T05:52:28;58.50;;;24.08;;
12888;SDS011;56848;49.896;11.424;2022-12-20T05:54:54;50.03;;;21.27;;
12888;SDS011;56848;49.896;11.424;2022-12-20T05:57:20;49.65;;;23.42;;
12888;SDS011;56848;49.896;11.424;2022-12-20T05:59:46;48.93;;;21.93;;
12888;SDS011;56848;49.896;11.424;2022-12-20T06:02:12;50.63;;;23.53;;
12888;SDS011;56848;49.896;11.424;2022-12-20T06:04:37;47.10;;;22.70;;
12888;SDS011;56848;49.896;11.424;2022-12-20T06:07:03;48.53;;;22.27;;
12888;SDS011;56848;49.896;11.424;2022-12-20T06:09:29;47.78;;;21.80;;
12888;SDS011;56848;49.896;11.424;2022-12-20T06:11:55;46.45;;;21.35;;
12888;SDS011;56848;49.896;11.424;2022-12-20T06:14:21;60.40;;;23.23;;
12888;SDS011;56848;49.896;11.424;2022-12-20T06:16:47;48.13;;;22.10;;
12888;SDS011;56848;49.896;11.424;2022-12-20T06:19:12;65.50;;;29.30;;
12888;SDS011;56848;49.896;11.424;2022-12-20T06:21:38;66.00;;;26.80;;
12888;SDS011;56848;49.896;11.424;2022-12-20T06:24:04;59.23;;;25.70;;
12888;SDS011;56848;49.896;11.424;2022-12-20T06:26:30;54.08;;;24.05;;
12888;SDS011;56848;49.896;11.424;2022-12-20T06:29:00;51.80;;;22.88;;
12888;SDS011;56848;49.896;11.424;2022-12-20T06:31:27;51.75;;;24.42;;
12888;SDS011;56848;49.896;11.424;2022-12-20T06:33:52;48.20;;;23.30;;
12888;SDS011;56848;49.896;11.424;2022-12-20T06:36:18;53.07;;;23.97;;
12888;SDS011;56848;49.896;11.424;2022-12-20T06:38:44;53.00;;;22.33;;
12888;SDS011;56848;49.896;11.424;2022-12-20T06:41:09;52.37;;;22.77;;
12888;SDS011;56848;49.896;11.424;2022-12-20T06:43:35;60.83;;;22.60;;
12888;SDS011;56848;49.896;11.424;2022-12-20T06:46:00;56.50;;;23.30;;
12888;SDS011;56848;49.896;11.424;2022-12-20T06:48:26;54.43;;;23.27;;
12888;SDS011;56848;49.896;11.424;2022-12-20T06:50:51;48.63;;;21.27;;
12888;SDS011;56848;49.896;11.424;2022-12-20T06:53:17;51.47;;;21.80;;
12888;SDS011;56848;49.896;11.424;2022-12-20T06:55:42;52.53;;;22.50;;
12888;SDS011;56848;49.896;11.424;2022-12-20T06:58:10;56.58;;;22.60;;
12888;SDS011;56848;49.896;11.424;2022-12-20T07:00:36;46.90;;;23.00;;
12888;SDS011;56848;49.896;11.424;2022-12-20T07:03:02;51.60;;;22.20;;
12888;SDS011;56848;49.896;11.424;2022-12-20T07:05:27;41.67;;;21.70;;
12888;SDS011;56848;49.896;11.424;2022-12-20T07:07:53;51.53;;;22.40;;
12888;SDS011;56848;49.896;11.424;2022-12-20T07:10:18;43.27;;;20.23;;
12888;SDS011;56848;49.896;11.424;2022-12-20T07:12:44;43.73;;;21.80;;
12888;SDS011;56848;49.896;11.424;2022-12-20T07:15:10;43.00;;;22.20;;
12888;SDS011;56848;49.896;11.424;2022-12-20T07:17:35;46.10;;;20.80;;
12888;SDS011;56848;49.896;11.424;2022-12-20T07:20:01;46.33;;;20.97;;
12888;SDS011;56848;49.896;11.424;2022-12-20T07:22:26;42.47;;;21.33;;
12888;SDS011;56848;49.896;11.424;2022-12-20T07:24:52;52.03;;;21.47;;
12888;SDS011;56848;49.896;11.424;2022-12-20T07:27:17;48.47;;;21.60;;
12888;SDS011;56848;49.896;11.424;2022-12-20T07:29:43;45.50;;;19.87;;
12888;SDS011;56848;49.896;11.424;2022-12-20T07:32:09;45.07;;;19.93;;
12888;SDS011;56848;49.896;11.424;2022-12-20T07:34:35;46.35;;;21.90;;
12888;SDS011;56848;49.896;11.424;2022-12-20T07:37:01;35.00;;;14.37;;
12888;SDS011;56848;49.896;11.424;2022-12-20T07:39:27;45.80;;;20.57;;
12888;SDS011;56848;49.896;11.424;2022-12-20T07:41:53;47.43;;;21.50;;
12888;SDS011;56848;49.896;11.424;2022-12-20T07:44:19;50.78;;;22.40;;
12888;SDS011;56848;49.896;11.424;2022-12-20T07:46:45;40.00;;;19.88;;
12888;SDS011;56848;49.896;11.424;2022-12-20T07:49:11;52.73;;;20.40;;
12888;SDS011;56848;49.896;11.424;2022-12-20T07:51:38;48.43;;;21.27;;
12888;SDS011;56848;49.896;11.424;2022-12-20T07:54:22;52.08;;;22.90;;
12888;SDS011;56848;49.896;11.424;2022-12-20T07:56:52;47.20;;;21.08;;
12888;SDS011;56848;49.896;11.424;2022-12-20T07:59:22;43.90;;;20.42;;
12888;SDS011;56848;49.896;11.424;2022-12-20T08:01:52;48.58;;;21.35;;
12888;SDS011;56848;49.896;11.424;2022-12-20T08:04:18;46.47;;;20.40;;
12888;SDS011;56848;49.896;11.424;2022-12-20T08:06:47;47.35;;;20.92;;
12888;SDS011;56848;49.896;11.424;2022-12-20T08:09:14;48.17;;;22.37;;
12888;SDS011;56848;49.896;11.424;2022-12-20T08:11:40;48.07;;;21.07;;
12888;SDS011;56848;49.896;11.424;2022-12-20T08:14:10;42.38;;;20.00;;
12888;SDS011;56848;49.896;11.424;2022-12-20T08:16:36;38.30;;;20.00;;
12888;SDS011;56848;49.896;11.424;2022-12-20T08:19:01;48.43;;;20.63;;
12888;SDS011;56848;49.896;11.424;2022-12-20T08:21:27;52.80;;;20.97;;
12888;SDS011;56848;49.896;11.424;2022-12-20T08:23:54;46.00;;;20.73;;
12888;SDS011;56848;49.896;11.424;2022-12-20T08:26:20;45.50;;;19.15;;
12888;SDS011;56848;49.896;11.424;2022-12-20T08:28:46;52.35;;;21.33;;
12888;SDS011;56848;49.896;11.424;2022-12-20T08:31:13;41.80;;;19.53;;
12888;SDS011;56848;49.896;11.424;2022-12-20T08:33:39;45.40;;;19.50;;
12888;SDS011;56848;49.896;11.424;2022-12-20T08:36:06;45.33;;;21.70;;
12888;SDS011;56848;49.896;11.424;2022-12-20T08:38:33;49.37;;;18.90;;
12888;SDS011;56848;49.896;11.424;2022-12-20T08:41:03;45.10;;;19.53;;
12888;SDS011;56848;49.896;11.424;2022-12-20T08:43:31;42.80;;;19.40;;
12888;SDS011;56848;49.896;11.424;2022-12-20T08:45:57;51.83;;;21.00;;
12888;SDS011;56848;49.896;11.424;2022-12-20T08:48:23;41.90;;;20.08;;
12888;SDS011;56848;49.896;11.424;2022-12-20T08:50:53;43.73;;;19.20;;
12888;SDS011;56848;49.896;11.424;2022-12-20T08:53:19;39.38;;;18.77;;
12888;SDS011;56848;49.896;11.424;2022-12-20T08:55:45;41.20;;;19.40;;
12888;SDS011;56848;49.896;11.424;2022-12-20T08:58:10;35.97;;;19.10;;
12888;SDS011;56848;49.896;11.424;2022-12-20T09:00:36;40.23;;;18.50;;
12888;SDS011;56848;49.896;11.424;2022-12-20T09:03:02;38.77;;;19.57;;
12888;SDS011;56848;49.896;11.424;2022-12-20T09:05:27;37.27;;;17.83;;
12888;SDS011;56848;49.896;11.424;2022-12-20T09:07:53;44.50;;;18.90;;
12888;SDS011;56848;49.896;11.424;2022-12-20T09:10:18;41.73;;;19.77;;
12888;SDS011;56848;49.896;11.424;2022-12-20T09:12:44;38.93;;;19.23;;
12888;SDS011;56848;49.896;11.424;2022-12-20T09:15:10;37.23;;;16.60;;
12888;SDS011;56848;49.896;11.424;2022-12-20T09:17:36;41.87;;;19.47;;
12888;SDS011;56848;49.896;11.424;2022-12-20T09:20:02;41.00;;;19.87;;
12888;SDS011;56848;49.896;11.424;2022-12-20T09:22:29;39.57;;;19.40;;
12888;SDS011;56848;49.896;11.424;2022-12-20T09:24:55;38.63;;;20.00;;
12888;SDS011;56848;49.896;11.424;2022-12-20T09:27:21;37.00;;;18.43;;
12888;SDS011;56848;49.896;11.424;2022-12-20T09:29:46;38.07;;;17.80;;
12888;SDS011;56848;49.896;11.424;2022-12-20T09:32:12;36.97;;;18.53;;
12888;SDS011;56848;49.896;11.424;2022-12-20T09:34:38;39.40;;;18.10;;
12888;SDS011;56848;49.896;11.424;2022-12-20T09:37:03;39.17;;;18.70;;
12888;SDS011;56848;49.896;11.424;2022-12-20T09:39:29;41.87;;;19.60;;
12888;SDS011;56848;49.896;11.424;2022-12-20T09:41:55;45.93;;;19.73;;
12888;SDS011;56848;49.896;11.424;2022-12-20T09:44:29;39.27;;;19.17;;
12888;SDS011;56848;49.896;11.424;2022-12-20T09:47:00;42.03;;;19.17;;
12888;SDS011;56848;49.896;11.424;2022-12-20T09:49:38;42.17;;;19.03;;
12888;SDS011;56848;49.896;11.424;2022-12-20T10:00:21;39.00;;;16.60;;
12888;SDS011;56848;49.896;11.424;2022-12-20T10:02:47;35.80;;;18.50;;
12888;SDS011;56848;49.896;11.424;2022-12-20T10:05:14;37.53;;;16.70;;
12888;SDS011;56848;49.896;11.424;2022-12-20T10:07:54;37.80;;;17.60;;
12888;SDS011;56848;49.896;11.424;2022-12-20T10:13:13;36.83;;;16.80;;
12888;SDS011;56848;49.896;11.424;2022-12-20T10:15:54;37.80;;;17.47;;
12888;SDS011;56848;49.896;11.424;2022-12-20T10:24:15;36.97;;;17.13;;
12888;SDS011;56848;49.896;11.424;2022-12-20T10:26:49;35.97;;;17.90;;
12888;SDS011;56848;49.896;11.424;2022-12-20T10:29:16;33.33;;;15.90;;
12888;SDS011;56848;49.896;11.424;2022-12-20T10:31:42;37.37;;;18.37;;
12888;SDS011;56848;49.896;11.424;2022-12-20T10:34:07;40.53;;;18.23;;
12888;SDS011;56848;49.896;11.424;2022-12-20T10:36:34;34.37;;;16.77;;
12888;SDS011;56848;49.896;11.424;2022-12-20T10:39:05;34.40;;;16.10;;
12888;SDS011;56848;49.896;11.424;2022-12-20T10:41:33;34.50;;;15.30;;
12888;SDS011;56848;49.896;11.424;2022-12-20T10:46:53;32.90;;;15.70;;
12888;SDS011;56848;49.896;11.424;2022-12-20T10:49:31;29.67;;;14.70;;
12888;SDS011;56848;49.896;11.424;2022-12-20T10:57:18;37.10;;;16.00;;
12888;SDS011;56848;49.896;11.424;2022-12-20T10:59:56;28.97;;;14.07;;
12888;SDS011;56848;49.896;11.424;2022-12-20T11:02:25;34.17;;;16.63;;
12888;SDS011;56848;49.896;11.424;2022-12-20T11:07:37;34.43;;;15.60;;
12888;SDS011;56848;49.896;11.424;2022-12-20T11:10:17;27.53;;;13.80;;
12888;SDS011;56848;49.896;11.424;2022-12-20T11:13:17;29.10;;;14.50;;
12888;SDS011;56848;49.896;11.424;2022-12-20T11:15:31;33.70;;;15.23;;
12888;SDS011;56848;49.896;11.424;2022-12-20T11:18:04;31.73;;;16.40;;
12888;SDS011;56848;49.896;11.424;2022-12-20T11:20:40;28.10;;;13.83;;
12888;SDS011;56848;49.896;11.424;2022-12-20T11:23:19;27.87;;;14.47;;
12888;SDS011;56848;49.896;11.424;2022-12-20T11:25:55;25.77;;;13.30;;
12888;SDS011;56848;49.896;11.424;2022-12-20T11:33:51;39.25;;;17.52;;
12888;SDS011;56848;49.896;11.424;2022-12-20T11:37:02;31.43;;;16.00;;
12888;SDS011;56848;49.896;11.424;2022-12-20T11:42:35;32.97;;;15.07;;
12888;SDS011;56848;49.896;11.424;2022-12-20T11:55:50;35.27;;;16.00;;
12888;SDS011;56848;49.896;11.424;2022-12-20T11:58:25;33.80;;;15.57;;
12888;SDS011;56848;49.896;11.424;2022-12-20T12:01:11;33.73;;;15.00;;
12888;SDS011;56848;49.896;11.424;2022-12-20T12:03:41;33.67;;;15.30;;
12888;SDS011;56848;49.896;11.424;2022-12-20T12:06:21;32.60;;;14.70;;
12888;SDS011;56848;49.896;11.424;2022-12-20T12:09:11;30.57;;;14.13;;
12888;SDS011;56848;49.896;11.424;2022-12-20T12:11:39;29.90;;;15.40;;
12888;SDS011;56848;49.896;11.424;2022-12-20T12:23:09;34.70;;;16.10;;
12888;SDS011;56848;49.896;11.424;2022-12-20T12:25:50;30.70;;;15.00;;
12888;SDS011;56848;49.896;11.424;2022-12-20T12:28:17;31.20;;;14.53;;
12888;SDS011;56848;49.896;11.424;2022-12-20T12:30:46;34.50;;;15.90;;
12888;SDS011;56848;49.896;11.424;2022-12-20T12:34:01;41.73;;;15.97;;
12888;SDS011;56848;49.896;11.424;2022-12-20T12:47:39;36.93;;;14.70;;
12888;SDS011;56848;49.896;11.424;2022-12-20T12:50:29;33.77;;;14.97;;
12888;SDS011;56848;49.896;11.424;2022-12-20T12:53:04;30.53;;;14.37;;
12888;SDS011;56848;49.896;11.424;2022-12-20T13:03:39;32.73;;;14.80;;
12888;SDS011;56848;49.896;11.424;2022-12-20T13:11:29;32.93;;;14.20;;
12888;SDS011;56848;49.896;11.424;2022-12-20T13:16:41;28.33;;;13.60;;
12888;SDS011;56848;49.896;11.424;2022-12-20T13:21:59;31.43;;;13.83;;
12888;SDS011;56848;49.896;11.424;2022-12-20T13:24:57;26.07;;;14.40;;
12888;SDS011;56848;49.896;11.424;2022-12-20T13:40:34;30.60;;;14.50;;
12888;SDS011;56848;49.896;11.424;2022-12-20T13:51:14;29.80;;;16.05;;
12888;SDS011;56848;49.896;11.424;2022-12-20T13:54:00;29.93;;;14.80;;
12888;SDS011;56848;49.896;11.424;2022-12-20T13:59:06;24.80;;;13.10;;
12888;SDS011;56848;49.896;11.424;2022-12-20T14:01:46;29.40;;;14.63;;
12888;SDS011;56848;49.896;11.424;2022-12-20T14:04:13;36.00;;;14.80;;
12888;SDS011;56848;49.896;11.424;2022-12-20T14:06:39;30.10;;;16.17;;
12888;SDS011;56848;49.896;11.424;2022-12-20T14:09:24;36.17;;;15.17;;
12888;SDS011;56848;49.896;11.424;2022-12-20T14:11:51;33.50;;;15.10;;
12888;SDS011;56848;49.896;11.424;2022-12-20T14:14:17;37.87;;;16.70;;
12888;SDS011;56848;49.896;11.424;2022-12-20T14:16:43;38.17;;;17.33;;
12888;SDS011;56848;49.896;11.424;2022-12-20T14:19:12;33.77;;;14.50;;
12888;SDS011;56848;49.896;11.424;2022-12-20T14:21:40;30.70;;;14.13;;
12888;SDS011;56848;49.896;11.424;2022-12-20T14:24:15;33.23;;;15.33;;
12888;SDS011;56848;49.896;11.424;2022-12-20T14:26:43;26.80;;;12.70;;
12888;SDS011;56848;49.896;11.424;2022-12-20T14:29:15;34.73;;;15.43;;
12888;SDS011;56848;49.896;11.424;2022-12-20T14:31:43;29.50;;;14.77;;
12888;SDS011;56848;49.896;11.424;2022-12-20T14:34:14;22.63;;;11.50;;
12888;SDS011;56848;49.896;11.424;2022-12-20T14:36:48;26.70;;;12.65;;
12888;SDS011;56848;49.896;11.424;2022-12-20T14:39:22;25.98;;;13.45;;
12888;SDS011;56848;49.896;11.424;2022-12-20T14:41:57;35.67;;;16.33;;
12888;SDS011;56848;49.896;11.424;2022-12-20T14:44:25;30.43;;;13.70;;
12888;SDS011;56848;49.896;11.424;2022-12-20T14:50:16;29.77;;;13.53;;
12888;SDS011;56848;49.896;11.424;2022-12-20T14:52:42;38.20;;;14.97;;
12888;SDS011;56848;49.896;11.424;2022-12-20T14:57:46;31.83;;;14.57;;
12888;SDS011;56848;49.896;11.424;2022-12-20T15:08:21;31.40;;;15.20;;
12888;SDS011;56848;49.896;11.424;2022-12-20T15:13:44;30.47;;;15.40;;
12888;SDS011;56848;49.896;11.424;2022-12-20T15:16:14;36.78;;;16.35;;
12888;SDS011;56848;49.896;11.424;2022-12-20T15:18:40;36.63;;;16.07;;
12888;SDS011;56848;49.896;11.424;2022-12-20T15:21:16;39.20;;;16.53;;
12888;SDS011;56848;49.896;11.424;2022-12-20T15:23:55;35.70;;;15.40;;
12888;SDS011;56848;49.896;11.424;2022-12-20T15:26:24;33.93;;;15.47;;
12888;SDS011;56848;49.896;11.424;2022-12-20T15:28:51;35.63;;;15.80;;
12888;SDS011;56848;49.896;11.424;2022-12-20T15:31:18;30.70;;;14.77;;
12888;SDS011;56848;49.896;11.424;2022-12-20T15:33:45;34.50;;;15.35;;
12888;SDS011;56848;49.896;11.424;2022-12-20T15:36:12;36.03;;;15.70;;
12888;SDS011;56848;49.896;11.424;2022-12-20T15:38:40;38.27;;;17.17;;
12888;SDS011;56848;49.896;11.424;2022-12-20T15:41:07;32.80;;;14.10;;
12888;SDS011;56848;49.896;11.424;2022-12-20T15:43:40;33.80;;;14.73;;
12888;SDS011;56848;49.896;11.424;2022-12-20T15:46:05;38.83;;;15.97;;
12888;SDS011;56848;49.896;11.424;2022-12-20T15:48:31;31.80;;;15.97;;
12888;SDS011;56848;49.896;11.424;2022-12-20T15:50:57;35.97;;;16.23;;
12888;SDS011;56848;49.896;11.424;2022-12-20T15:53:24;34.60;;;15.87;;
12888;SDS011;56848;49.896;11.424;2022-12-20T15:55:57;36.13;;;15.30;;
12888;SDS011;56848;49.896;11.424;2022-12-20T15:58:23;37.25;;;16.42;;
12888;SDS011;56848;49.896;11.424;2022-12-20T16:00:52;35.85;;;16.25;;
12888;SDS011;56848;49.896;11.424;2022-12-20T16:03:20;34.33;;;15.97;;
12888;SDS011;56848;49.896;11.424;2022-12-20T16:05:47;36.70;;;17.73;;
12888;SDS011;56848;49.896;11.424;2022-12-20T16:08:15;33.50;;;15.00;;
12888;SDS011;56848;49.896;11.424;2022-12-20T16:10:42;34.67;;;15.32;;
12888;SDS011;56848;49.896;11.424;2022-12-20T16:13:12;35.23;;;16.33;;
12888;SDS011;56848;49.896;11.424;2022-12-20T16:15:44;36.73;;;15.90;;
12888;SDS011;56848;49.896;11.424;2022-12-20T16:18:10;33.70;;;16.10;;
12888;SDS011;56848;49.896;11.424;2022-12-20T16:20:36;33.43;;;15.63;;
12888;SDS011;56848;49.896;11.424;2022-12-20T16:23:02;35.55;;;15.00;;
12888;SDS011;56848;49.896;11.424;2022-12-20T16:25:30;36.33;;;16.27;;
12888;SDS011;56848;49.896;11.424;2022-12-20T16:27:56;42.70;;;16.60;;
12888;SDS011;56848;49.896;11.424;2022-12-20T16:30:23;37.80;;;16.67;;
12888;SDS011;56848;49.896;11.424;2022-12-20T16:32:49;39.17;;;15.38;;
12888;SDS011;56848;49.896;11.424;2022-12-20T16:35:20;31.40;;;15.27;;
12888;SDS011;56848;49.896;11.424;2022-12-20T16:37:48;39.50;;;16.83;;
12888;SDS011;56848;49.896;11.424;2022-12-20T16:40:13;32.37;;;15.57;;
12888;SDS011;56848;49.896;11.424;2022-12-20T16:42:39;38.20;;;17.37;;
12888;SDS011;56848;49.896;11.424;2022-12-20T16:45:05;38.60;;;15.30;;
12888;SDS011;56848;49.896;11.424;2022-12-20T16:47:37;33.85;;;16.80;;
12888;SDS011;56848;49.896;11.424;2022-12-20T16:50:04;37.27;;;15.63;;
12888;SDS011;56848;49.896;11.424;2022-12-20T16:52:32;27.30;;;14.00;;
12888;SDS011;56848;49.896;11.424;2022-12-20T16:55:01;43.90;;;20.15;;
12888;SDS011;56848;49.896;11.424;2022-12-20T16:57:27;45.95;;;21.35;;
12888;SDS011;56848;49.896;11.424;2022-12-20T16:59:52;34.53;;;15.43;;
12888;SDS011;56848;49.896;11.424;2022-12-20T17:02:28;42.37;;;15.93;;
12888;SDS011;56848;49.896;11.424;2022-12-20T17:04:56;39.97;;;16.08;;
12888;SDS011;56848;49.896;11.424;2022-12-20T17:07:23;31.35;;;15.40;;
12888;SDS011;56848;49.896;11.424;2022-12-20T17:09:49;35.13;;;14.82;;
12888;SDS011;56848;49.896;11.424;2022-12-20T17:12:16;41.20;;;17.33;;
12888;SDS011;56848;49.896;11.424;2022-12-20T17:14:43;38.97;;;16.35;;
12888;SDS011;56848;49.896;11.424;2022-12-20T17:17:09;63.73;;;27.03;;
12888;SDS011;56848;49.896;11.424;2022-12-20T17:19:35;33.70;;;16.37;;
12888;SDS011;56848;49.896;11.424;2022-12-20T17:22:00;42.70;;;20.27;;
12888;SDS011;56848;49.896;11.424;2022-12-20T17:24:27;37.97;;;15.27;;
12888;SDS011;56848;49.896;11.424;2022-12-20T17:26:53;30.87;;;15.27;;
12888;SDS011;56848;49.896;11.424;2022-12-20T17:29:19;34.63;;;15.80;;
12888;SDS011;56848;49.896;11.424;2022-12-20T17:31:45;31.97;;;14.17;;
12888;SDS011;56848;49.896;11.424;2022-12-20T17:36:47;43.03;;;19.17;;
12888;SDS011;56848;49.896;11.424;2022-12-20T17:39:14;37.20;;;17.40;;
12888;SDS011;56848;49.896;11.424;2022-12-20T17:41:39;35.53;;;17.43;;
12888;SDS011;56848;49.896;11.424;2022-12-20T17:46:55;40.28;;;15.50;;
12888;SDS011;56848;49.896;11.424;2022-12-20T17:49:22;32.10;;;14.87;;
12888;SDS011;56848;49.896;11.424;2022-12-20T17:51:48;35.85;;;14.95;;
12888;SDS011;56848;49.896;11.424;2022-12-20T17:54:19;33.22;;;15.50;;
12888;SDS011;56848;49.896;11.424;2022-12-20T17:56:49;33.27;;;14.30;;
12888;SDS011;56848;49.896;11.424;2022-12-20T17:59:15;28.60;;;13.18;;
12888;SDS011;56848;49.896;11.424;2022-12-20T18:01:42;32.77;;;13.30;;
12888;SDS011;56848;49.896;11.424;2022-12-20T18:04:10;32.30;;;13.65;;
12888;SDS011;56848;49.896;11.424;2022-12-20T18:06:38;31.60;;;14.60;;
12888;SDS011;56848;49.896;11.424;2022-12-20T18:09:05;29.57;;;13.87;;
12888;SDS011;56848;49.896;11.424;2022-12-20T18:11:39;31.25;;;14.75;;
12888;SDS011;56848;49.896;11.424;2022-12-20T18:14:05;32.70;;;15.03;;
12888;SDS011;56848;49.896;11.424;2022-12-20T18:16:31;39.10;;;15.90;;
12888;SDS011;56848;49.896;11.424;2022-12-20T18:18:59;32.30;;;14.30;;
12888;SDS011;56848;49.896;11.424;2022-12-20T18:21:25;31.25;;;13.63;;
12888;SDS011;56848;49.896;11.424;2022-12-20T18:23:51;36.73;;;14.40;;
12888;SDS011;56848;49.896;11.424;2022-12-20T18:28:47;30.67;;;14.40;;
12888;SDS011;56848;49.896;11.424;2022-12-20T18:31:15;33.08;;;13.63;;
12888;SDS011;56848;49.896;11.424;2022-12-20T18:33:42;35.47;;;15.77;;
12888;SDS011;56848;49.896;11.424;2022-12-20T18:38:35;43.17;;;14.50;;
12888;SDS011;56848;49.896;11.424;2022-12-20T18:41:03;31.80;;;13.65;;
12888;SDS011;56848;49.896;11.424;2022-12-20T18:43:30;36.28;;;13.13;;
12888;SDS011;56848;49.896;11.424;2022-12-20T18:46:03;32.30;;;14.10;;
12888;SDS011;56848;49.896;11.424;2022-12-20T18:48:30;35.88;;;13.93;;
12888;SDS011;56848;49.896;11.424;2022-12-20T18:51:01;30.05;;;12.60;;
12888;SDS011;56848;49.896;11.424;2022-12-20T18:53:32;27.27;;;12.95;;
12888;SDS011;56848;49.896;11.424;2022-12-20T18:56:01;34.70;;;13.77;;
12888;SDS011;56848;49.896;11.424;2022-12-20T18:58:31;36.35;;;14.90;;
12888;SDS011;56848;49.896;11.424;2022-12-20T19:00:58;33.73;;;13.60;;
12888;SDS011;56848;49.896;11.424;2022-12-20T19:03:25;35.53;;;15.45;;
12888;SDS011;56848;49.896;11.424;2022-12-20T19:05:51;33.13;;;14.43;;
12888;SDS011;56848;49.896;11.424;2022-12-20T19:08:21;40.00;;;17.92;;
12888;SDS011;56848;49.896;11.424;2022-12-20T19:10:47;40.35;;;16.23;;
12888;SDS011;56848;49.896;11.424;2022-12-20T19:13:13;36.22;;;16.27;;
12888;SDS011;56848;49.896;11.424;2022-12-20T19:15:41;42.33;;;17.80;;
12888;SDS011;56848;49.896;11.424;2022-12-20T19:18:08;38.40;;;18.73;;
12888;SDS011;56848;49.896;11.424;2022-12-20T19:20:34;41.03;;;17.03;;
12888;SDS011;56848;49.896;11.424;2022-12-20T19:23:01;43.97;;;17.80;;
12888;SDS011;56848;49.896;11.424;2022-12-20T19:25:27;44.08;;;17.50;;
12888;SDS011;56848;49.896;11.424;2022-12-20T19:27:54;42.05;;;18.70;;
12888;SDS011;56848;49.896;11.424;2022-12-20T19:30:20;48.70;;;19.03;;
12888;SDS011;56848;49.896;11.424;2022-12-20T19:32:46;45.67;;;17.87;;
12888;SDS011;56848;49.896;11.424;2022-12-20T19:35:11;41.80;;;16.87;;
12888;SDS011;56848;49.896;11.424;2022-12-20T19:37:37;50.73;;;20.27;;
12888;SDS011;56848;49.896;11.424;2022-12-20T19:40:03;44.78;;;16.60;;
12888;SDS011;56848;49.896;11.424;2022-12-20T19:42:30;37.92;;;17.00;;
12888;SDS011;56848;49.896;11.424;2022-12-20T19:44:55;44.50;;;16.63;;
12888;SDS011;56848;49.896;11.424;2022-12-20T19:47:21;43.70;;;17.90;;
12888;SDS011;56848;49.896;11.424;2022-12-20T19:49:47;44.45;;;17.70;;
12888;SDS011;56848;49.896;11.424;2022-12-20T19:52:13;41.60;;;16.73;;
12888;SDS011;56848;49.896;11.424;2022-12-20T19:54:39;39.33;;;17.48;;
12888;SDS011;56848;49.896;11.424;2022-12-20T19:57:07;41.53;;;16.45;;
12888;SDS011;56848;49.896;11.424;2022-12-20T19:59:32;43.63;;;16.80;;
12888;SDS011;56848;49.896;11.424;2022-12-20T20:01:58;44.23;;;16.80;;
12888;SDS011;56848;49.896;11.424;2022-12-20T20:04:23;40.07;;;17.53;;
12888;SDS011;56848;49.896;11.424;2022-12-20T20:06:49;41.07;;;17.27;;
12888;SDS011;56848;49.896;11.424;2022-12-20T20:09:14;43.57;;;17.33;;
12888;SDS011;56848;49.896;11.424;2022-12-20T20:11:40;41.27;;;17.17;;
12888;SDS011;56848;49.896;11.424;2022-12-20T20:14:05;50.43;;;17.00;;
12888;SDS011;56848;49.896;11.424;2022-12-20T20:16:33;54.20;;;19.95;;
12888;SDS011;56848;49.896;11.424;2022-12-20T20:18:59;47.80;;;19.80;;
12888;SDS011;56848;49.896;11.424;2022-12-20T20:21:24;49.53;;;20.87;;
12888;SDS011;56848;49.896;11.424;2022-12-20T20:23:51;47.50;;;17.73;;
12888;SDS011;56848;49.896;11.424;2022-12-20T20:26:19;42.55;;;18.73;;
12888;SDS011;56848;49.896;11.424;2022-12-20T20:28:46;34.33;;;16.95;;
12888;SDS011;56848;49.896;11.424;2022-12-20T20:31:13;46.10;;;18.87;;
12888;SDS011;56848;49.896;11.424;2022-12-20T20:33:40;40.40;;;18.60;;
12888;SDS011;56848;49.896;11.424;2022-12-20T20:36:05;40.40;;;18.40;;
12888;SDS011;56848;49.896;11.424;2022-12-20T20:38:32;45.70;;;18.87;;
12888;SDS011;56848;49.896;11.424;2022-12-20T20:40:58;45.17;;;17.98;;
12888;SDS011;56848;49.896;11.424;2022-12-20T20:43:24;42.90;;;16.70;;
12888;SDS011;56848;49.896;11.424;2022-12-20T20:45:50;37.53;;;16.30;;
12888;SDS011;56848;49.896;11.424;2022-12-20T20:48:16;50.88;;;18.92;;
12888;SDS011;56848;49.896;11.424;2022-12-20T20:50:42;44.20;;;18.97;;
12888;SDS011;56848;49.896;11.424;2022-12-20T20:53:09;44.22;;;17.20;;
12888;SDS011;56848;49.896;11.424;2022-12-20T20:55:35;42.28;;;18.27;;
12888;SDS011;56848;49.896;11.424;2022-12-20T20:58:01;37.20;;;16.00;;
12888;SDS011;56848;49.896;11.424;2022-12-20T21:00:27;43.17;;;16.17;;
12888;SDS011;56848;49.896;11.424;2022-12-20T21:02:56;39.72;;;16.60;;
12888;SDS011;56848;49.896;11.424;2022-12-20T21:05:23;37.90;;;15.48;;
12888;SDS011;56848;49.896;11.424;2022-12-20T21:07:49;41.80;;;16.95;;
12888;SDS011;56848;49.896;11.424;2022-12-20T21:10:14;44.30;;;16.30;;
12888;SDS011;56848;49.896;11.424;2022-12-20T21:12:41;46.70;;;16.97;;
12888;SDS011;56848;49.896;11.424;2022-12-20T21:15:07;40.45;;;16.77;;
12888;SDS011;56848;49.896;11.424;2022-12-20T21:17:33;39.67;;;16.60;;
12888;SDS011;56848;49.896;11.424;2022-12-20T21:19:59;44.53;;;16.90;;
12888;SDS011;56848;49.896;11.424;2022-12-20T21:22:25;42.77;;;17.30;;
